Mandarin Arrow — C6OA3 — position and weather

sailwx.info

Track history (hours):
 
Tides and Currents Weather Stations Pressure Air Temp Water Temp Dewpoint Dewpoint Depression Visibility Wind Speed Wind Dir Waves Ship Positions

Mandarin Arrow

Last reported at 2018-Jun-21 12:00 UTC. Time now 2018-Jun-21 16:28 UTC.
Position N 52°06' W 152°42'.

Length 200 m; draft 11.5 m.

Type: Cargo ship. MMSI: 309601000.

Wind from 260 at 22 knots

Barometer 1010.9 mb
Air temperature 8.0 ° C
Visibility: greater than 10.8 NM
Dewpoint 5.8 ° C

Date/timePositionNaut miles runAvg speedWind from/ knotsBaromVisibWave heightAir tempDewpointWater temp
2018-Jun-21 12:00N 52°06' W 152°42'42911.9 260 / 221010.910.8 8.0 5.8
2018-Jun-20 00:00N 54°12' W 141°18'32710.2 180 / 121020.5 2.2 10.5 3.7
2018-Jun-18 15:48N 54°20' W 131°58'311.1
2018-Jun-18 15:30N 54°20' W 131°52'510.7
2018-Jun-18 15:00N 54°20' W 131°43'510.7
2018-Jun-18 14:30N 54°21' W 131°34'611.0
2018-Jun-18 14:00N 54°21' W 131°25'611.3
2018-Jun-18 13:30N 54°21' W 131°15'612.0
2018-Jun-18 13:00N 54°20' W 131°05'611.6
2018-Jun-18 12:30N 54°19' W 130°55'4 8.8
2018-Jun-18 12:00N 54°17' W 130°49'612.1
2018-Jun-18 11:30N 54°13' W 130°41'612.6
2018-Jun-18 11:00N 54°10' W 130°31'612.4
2018-Jun-18 10:30N 54°07' W 130°22'612.3
2018-Jun-18 10:00N 54°02' W 130°15'612.8
2018-Jun-18 09:30N 53°56' W 130°11'611.5
2018-Jun-18 09:00N 53°52' W 130°04'612.7
2018-Jun-18 08:30N 53°48' W 129°57'612.0
2018-Jun-18 08:00N 53°44' W 129°50'  
2018-Jun-15 05:23N 52°44' W 129°04'514.3
2018-Jun-15 05:01N 52°40' W 128°58'813.2
2018-Jun-15 04:24N 52°33' W 128°52'513.8
2018-Jun-15 04:00N 52°27' W 128°51'713.7
2018-Jun-15 03:30N 52°20' W 128°49'713.3
2018-Jun-15 03:00N 52°14' W 128°47'713.5
2018-Jun-15 02:30N 52°07' W 128°44'713.4
2018-Jun-15 02:00N 52°01' W 128°41'713.3
2018-Jun-15 01:30N 51°54' W 128°38'713.2
2018-Jun-15 01:00N 51°48' W 128°35'612.8
2018-Jun-15 00:30N 51°42' W 128°33'612.6
2018-Jun-15 00:00N 51°36' W 128°31'712.9
2018-Jun-14 23:30N 51°29' W 128°28'613.0
2018-Jun-14 23:00N 51°23' W 128°26'612.9
2018-Jun-14 22:30N 51°17' W 128°23'612.7
2018-Jun-14 22:00N 51°12' W 128°17'713.4
2018-Jun-14 21:30N 51°08' W 128°08'713.3
2018-Jun-14 21:00N 51°04' W 127°59'613.0
2018-Jun-14 20:30N 51°00' W 127°51'612.9
2018-Jun-14 20:00N 50°57' W 127°42'612.9
2018-Jun-14 19:30N 50°53' W 127°35'612.7
2018-Jun-14 19:00N 50°49' W 127°26'713.5
2018-Jun-14 18:30N 50°47' W 127°16'713.6
2018-Jun-14 18:00N 50°44' W 127°06'713.5
2018-Jun-14 17:30N 50°42' W 126°56'713.3
2018-Jun-14 17:00N 50°38' W 126°47'714.4
2018-Jun-14 16:29N 50°32' W 126°41'3615.2
2018-Jun-14 14:08N 50°23' W 125°47'216.7
2018-Jun-14 14:00N 50°22' W 125°43'1015.2
2018-Jun-14 13:19N 50°20' W 125°27'412.5
2018-Jun-14 13:00N 50°17' W 125°24'613.1
2018-Jun-14 12:30N 50°11' W 125°22'511.0
2018-Jun-14 12:00N 50°06' W 125°17'510.8
2018-Jun-14 11:30N 50°01' W 125°13'5 9.5
2018-Jun-14 10:59N 49°57' W 125°09'4 9.0
2018-Jun-14 10:30N 49°55' W 125°03'5 9.3
2018-Jun-14 10:00N 49°51' W 124°58'5 9.6
2018-Jun-14 09:28N 49°48' W 124°52'4 9.0
2018-Jun-14 09:00N 49°45' W 124°48'510.1
2018-Jun-14 08:30N 49°41' W 124°42'612.4
2018-Jun-14 08:00N 49°37' W 124°36'713.0
2018-Jun-14 07:29N 49°32' W 124°28'612.0
2018-Jun-14 06:58N 49°27' W 124°22'511.8
2018-Jun-14 06:30N 49°25' W 124°15'713.0
2018-Jun-14 05:59N 49°23' W 124°04'612.4
2018-Jun-14 05:30N 49°23' W 123°55'1612.6
2018-Jun-14 04:16N 49°22' W 123°31'9 0.2
2018-Jun-12 07:27N 49°21' W 123°18'3 6.8
2018-Jun-12 07:00N 49°18' W 123°16'713.1
2018-Jun-12 06:30N 49°12' W 123°20'713.3
2018-Jun-12 06:00N 49°05' W 123°21'713.3
2018-Jun-12 05:29N 48°60' W 123°13'713.9
2018-Jun-12 05:00N 48°55' W 123°06'713.2
2018-Jun-12 04:30N 48°50' W 123°00'611.0
2018-Jun-12 03:58N 48°45' W 123°06'612.4
2018-Jun-12 03:30N 48°43' W 123°14'713.4
2018-Jun-12 02:59N 48°49' W 123°20'913.1
2018-Jun-12 02:19N 48°55' W 123°30'412.1
2018-Jun-12 01:59N 48°57' W 123°35'4 8.7
2018-Jun-12 01:30N 48°53' W 123°37'1 2.5
2018-Jun-12 01:00N 48°52' W 123°38'0 0.0
2018-Jun-11 23:37N 48°52' W 123°38'0 0.0
2018-Jun-11 23:28N 48°52' W 123°38'0 0.0
2018-Jun-11 22:55N 48°52' W 123°38'0 0.0
2018-Jun-11 22:28N 48°52' W 123°38'0 0.0
2018-Jun-11 21:55N 48°52' W 123°38'0 0.0
2018-Jun-11 21:28N 48°52' W 123°38'0 0.0
2018-Jun-11 20:58N 48°52' W 123°38'0 0.0
2018-Jun-11 20:25N 48°52' W 123°38'0 0.0
2018-Jun-11 19:58N 48°52' W 123°38'0 0.0
2018-Jun-11 19:25N 48°52' W 123°38'0 0.0
2018-Jun-11 18:58N 48°52' W 123°38'0 0.0
2018-Jun-11 18:28N 48°52' W 123°38'0 0.0
2018-Jun-11 17:52N 48°52' W 123°38'0 0.0
2018-Jun-11 17:28N 48°52' W 123°38'0 0.0
2018-Jun-11 16:58N 48°52' W 123°38'0 0.0
2018-Jun-11 16:28N 48°52' W 123°38'0 0.0
2018-Jun-11 15:58N 48°52' W 123°38'0 0.0
2018-Jun-11 15:28N 48°52' W 123°38'0 0.0
2018-Jun-11 14:58N 48°52' W 123°38'0 0.0
2018-Jun-11 14:28N 48°52' W 123°38'0 0.0
2018-Jun-11 13:58N 48°52' W 123°38'0 0.0
2018-Jun-11 13:28N 48°52' W 123°38'0 0.0
2018-Jun-11 12:58N 48°52' W 123°38'0 0.0
2018-Jun-11 12:28N 48°52' W 123°38'  
Track history (hours):
 
Tides and Currents Weather Stations Pressure Air Temp Water Temp Dewpoint Dewpoint Depression Visibility Wind Speed Wind Dir Waves Ship Positions

Mandarin Arrow

Last reported at 2018-Jun-21 12:00 UTC. Time now 2018-Jun-21 16:28 UTC.
Position N 52°06' W 152°42'.

Length 200 m; draft 11.5 m.

Type: Cargo ship. MMSI: 309601000.

Wind from 260 at 22 knots

Barometer 1010.9 mb
Air temperature 8.0 ° C
Visibility: greater than 10.8 NM
Dewpoint 5.8 ° C

Date/timePositionNaut miles runAvg speedWind from/ knotsBaromVisibWave heightAir tempDewpointWater temp
2018-Jun-21 12:00N 52°06' W 152°42'42911.9 260 / 221010.910.8 8.0 5.8
2018-Jun-20 00:00N 54°12' W 141°18'32710.2 180 / 121020.5 2.2 10.5 3.7
2018-Jun-18 15:48N 54°20' W 131°58'311.1
2018-Jun-18 15:30N 54°20' W 131°52'510.7
2018-Jun-18 15:00N 54°20' W 131°43'510.7
2018-Jun-18 14:30N 54°21' W 131°34'611.0
2018-Jun-18 14:00N 54°21' W 131°25'611.3
2018-Jun-18 13:30N 54°21' W 131°15'612.0
2018-Jun-18 13:00N 54°20' W 131°05'611.6
2018-Jun-18 12:30N 54°19' W 130°55'4 8.8
2018-Jun-18 12:00N 54°17' W 130°49'612.1
2018-Jun-18 11:30N 54°13' W 130°41'612.6
2018-Jun-18 11:00N 54°10' W 130°31'612.4
2018-Jun-18 10:30N 54°07' W 130°22'612.3
2018-Jun-18 10:00N 54°02' W 130°15'612.8
2018-Jun-18 09:30N 53°56' W 130°11'611.5
2018-Jun-18 09:00N 53°52' W 130°04'612.7
2018-Jun-18 08:30N 53°48' W 129°57'612.0
2018-Jun-18 08:00N 53°44' W 129°50'  
2018-Jun-15 05:23N 52°44' W 129°04'514.3
2018-Jun-15 05:01N 52°40' W 128°58'813.2
2018-Jun-15 04:24N 52°33' W 128°52'513.8
2018-Jun-15 04:00N 52°27' W 128°51'713.7
2018-Jun-15 03:30N 52°20' W 128°49'713.3
2018-Jun-15 03:00N 52°14' W 128°47'713.5
2018-Jun-15 02:30N 52°07' W 128°44'713.4
2018-Jun-15 02:00N 52°01' W 128°41'713.3
2018-Jun-15 01:30N 51°54' W 128°38'713.2
2018-Jun-15 01:00N 51°48' W 128°35'612.8
2018-Jun-15 00:30N 51°42' W 128°33'612.6
2018-Jun-15 00:00N 51°36' W 128°31'712.9
2018-Jun-14 23:30N 51°29' W 128°28'613.0
2018-Jun-14 23:00N 51°23' W 128°26'612.9
2018-Jun-14 22:30N 51°17' W 128°23'612.7
2018-Jun-14 22:00N 51°12' W 128°17'713.4
2018-Jun-14 21:30N 51°08' W 128°08'713.3
2018-Jun-14 21:00N 51°04' W 127°59'613.0
2018-Jun-14 20:30N 51°00' W 127°51'612.9
2018-Jun-14 20:00N 50°57' W 127°42'612.9
2018-Jun-14 19:30N 50°53' W 127°35'612.7
2018-Jun-14 19:00N 50°49' W 127°26'713.5
2018-Jun-14 18:30N 50°47' W 127°16'713.6
2018-Jun-14 18:00N 50°44' W 127°06'713.5
2018-Jun-14 17:30N 50°42' W 126°56'713.3
2018-Jun-14 17:00N 50°38' W 126°47'714.4
2018-Jun-14 16:29N 50°32' W 126°41'3615.2
2018-Jun-14 14:08N 50°23' W 125°47'216.7
2018-Jun-14 14:00N 50°22' W 125°43'1015.2
2018-Jun-14 13:19N 50°20' W 125°27'412.5
2018-Jun-14 13:00N 50°17' W 125°24'613.1
2018-Jun-14 12:30N 50°11' W 125°22'511.0
2018-Jun-14 12:00N 50°06' W 125°17'510.8
2018-Jun-14 11:30N 50°01' W 125°13'5 9.5
2018-Jun-14 10:59N 49°57' W 125°09'4 9.0
2018-Jun-14 10:30N 49°55' W 125°03'5 9.3
2018-Jun-14 10:00N 49°51' W 124°58'5 9.6
2018-Jun-14 09:28N 49°48' W 124°52'4 9.0
2018-Jun-14 09:00N 49°45' W 124°48'510.1
2018-Jun-14 08:30N 49°41' W 124°42'612.4
2018-Jun-14 08:00N 49°37' W 124°36'713.0
2018-Jun-14 07:29N 49°32' W 124°28'612.0
2018-Jun-14 06:58N 49°27' W 124°22'511.8
2018-Jun-14 06:30N 49°25' W 124°15'713.0
2018-Jun-14 05:59N 49°23' W 124°04'612.4
2018-Jun-14 05:30N 49°23' W 123°55'1612.6
2018-Jun-14 04:16N 49°22' W 123°31'9 0.2
2018-Jun-12 07:27N 49°21' W 123°18'3 6.8
2018-Jun-12 07:00N 49°18' W 123°16'713.1
2018-Jun-12 06:30N 49°12' W 123°20'713.3
2018-Jun-12 06:00N 49°05' W 123°21'713.3
2018-Jun-12 05:29N 48°60' W 123°13'713.9
2018-Jun-12 05:00N 48°55' W 123°06'713.2
2018-Jun-12 04:30N 48°50' W 123°00'611.0
2018-Jun-12 03:58N 48°45' W 123°06'612.4
2018-Jun-12 03:30N 48°43' W 123°14'713.4
2018-Jun-12 02:59N 48°49' W 123°20'913.1
2018-Jun-12 02:19N 48°55' W 123°30'412.1
2018-Jun-12 01:59N 48°57' W 123°35'4 8.7
2018-Jun-12 01:30N 48°53' W 123°37'1 2.5
2018-Jun-12 01:00N 48°52' W 123°38'0 0.0
2018-Jun-11 23:37N 48°52' W 123°38'0 0.0
2018-Jun-11 23:28N 48°52' W 123°38'0 0.0
2018-Jun-11 22:55N 48°52' W 123°38'0 0.0
2018-Jun-11 22:28N 48°52' W 123°38'0 0.0
2018-Jun-11 21:55N 48°52' W 123°38'0 0.0
2018-Jun-11 21:28N 48°52' W 123°38'0 0.0
2018-Jun-11 20:58N 48°52' W 123°38'0 0.0
2018-Jun-11 20:25N 48°52' W 123°38'0 0.0
2018-Jun-11 19:58N 48°52' W 123°38'0 0.0
2018-Jun-11 19:25N 48°52' W 123°38'0 0.0
2018-Jun-11 18:58N 48°52' W 123°38'0 0.0
2018-Jun-11 18:28N 48°52' W 123°38'0 0.0
2018-Jun-11 17:52N 48°52' W 123°38'0 0.0
2018-Jun-11 17:28N 48°52' W 123°38'0 0.0
2018-Jun-11 16:58N 48°52' W 123°38'0 0.0
2018-Jun-11 16:28N 48°52' W 123°38'0 0.0
2018-Jun-11 15:58N 48°52' W 123°38'0 0.0
2018-Jun-11 15:28N 48°52' W 123°38'0 0.0
2018-Jun-11 14:58N 48°52' W 123°38'0 0.0
2018-Jun-11 14:28N 48°52' W 123°38'0 0.0
2018-Jun-11 13:58N 48°52' W 123°38'0 0.0
2018-Jun-11 13:28N 48°52' W 123°38'0 0.0
2018-Jun-11 12:58N 48°52' W 123°38'0 0.0
2018-Jun-11 12:28N 48°52' W 123°38'  

Dump ship's entire track history